sensor_id;sensor_type;location;lat;lon;timestamp;P1;durP1;ratioP1;P2;durP2;ratioP2
62633;SDS011;48704;50.534;6.442;2023-12-20T00:00:20;1.17;;;0.60;;
62633;SDS011;48704;50.534;6.442;2023-12-20T00:02:46;0.82;;;0.40;;
62633;SDS011;48704;50.534;6.442;2023-12-20T00:05:12;0.55;;;0.22;;
62633;SDS011;48704;50.534;6.442;2023-12-20T00:07:38;0.65;;;0.22;;
62633;SDS011;48704;50.534;6.442;2023-12-20T00:10:04;1.30;;;0.50;;
62633;SDS011;48704;50.534;6.442;2023-12-20T00:12:30;0.80;;;0.38;;
62633;SDS011;48704;50.534;6.442;2023-12-20T00:14:55;1.92;;;0.93;;
62633;SDS011;48704;50.534;6.442;2023-12-20T00:17:20;2.00;;;0.73;;
62633;SDS011;48704;50.534;6.442;2023-12-20T00:19:45;1.42;;;0.70;;
62633;SDS011;48704;50.534;6.442;2023-12-20T00:22:11;1.15;;;0.60;;
62633;SDS011;48704;50.534;6.442;2023-12-20T00:24:36;3.30;;;0.98;;
62633;SDS011;48704;50.534;6.442;2023-12-20T00:27:01;1.77;;;0.90;;
62633;SDS011;48704;50.534;6.442;2023-12-20T00:29:27;1.58;;;0.95;;
62633;SDS011;48704;50.534;6.442;2023-12-20T00:31:52;2.97;;;1.38;;
62633;SDS011;48704;50.534;6.442;2023-12-20T00:34:17;4.18;;;1.95;;
62633;SDS011;48704;50.534;6.442;2023-12-20T00:36:43;3.08;;;1.42;;
62633;SDS011;48704;50.534;6.442;2023-12-20T00:39:08;4.72;;;2.67;;
62633;SDS011;48704;50.534;6.442;2023-12-20T00:41:33;5.18;;;1.60;;
62633;SDS011;48704;50.534;6.442;2023-12-20T00:43:59;4.10;;;2.42;;
62633;SDS011;48704;50.534;6.442;2023-12-20T00:46:24;4.43;;;2.55;;
62633;SDS011;48704;50.534;6.442;2023-12-20T00:48:49;3.88;;;2.03;;
62633;SDS011;48704;50.534;6.442;2023-12-20T00:51:14;5.82;;;2.80;;
62633;SDS011;48704;50.534;6.442;2023-12-20T00:53:40;5.18;;;2.80;;
62633;SDS011;48704;50.534;6.442;2023-12-20T00:56:05;3.55;;;1.83;;
62633;SDS011;48704;50.534;6.442;2023-12-20T00:58:31;5.38;;;2.47;;
62633;SDS011;48704;50.534;6.442;2023-12-20T01:00:57;6.30;;;3.05;;
62633;SDS011;48704;50.534;6.442;2023-12-20T01:03:23;5.32;;;3.40;;
62633;SDS011;48704;50.534;6.442;2023-12-20T01:05:48;6.22;;;3.00;;
62633;SDS011;48704;50.534;6.442;2023-12-20T01:08:13;6.72;;;3.10;;
62633;SDS011;48704;50.534;6.442;2023-12-20T01:10:39;6.15;;;2.67;;
62633;SDS011;48704;50.534;6.442;2023-12-20T01:13:05;9.70;;;4.70;;
62633;SDS011;48704;50.534;6.442;2023-12-20T01:15:30;11.02;;;5.72;;
62633;SDS011;48704;50.534;6.442;2023-12-20T01:17:55;8.35;;;4.50;;
62633;SDS011;48704;50.534;6.442;2023-12-20T01:20:21;12.95;;;6.53;;
62633;SDS011;48704;50.534;6.442;2023-12-20T01:22:47;9.45;;;5.47;;
62633;SDS011;48704;50.534;6.442;2023-12-20T01:25:12;9.90;;;5.85;;
62633;SDS011;48704;50.534;6.442;2023-12-20T01:27:37;14.15;;;6.25;;
62633;SDS011;48704;50.534;6.442;2023-12-20T01:30:03;10.32;;;5.15;;
62633;SDS011;48704;50.534;6.442;2023-12-20T01:32:29;13.68;;;4.43;;
62633;SDS011;48704;50.534;6.442;2023-12-20T01:34:54;7.70;;;4.50;;
62633;SDS011;48704;50.534;6.442;2023-12-20T01:37:19;5.85;;;2.38;;
62633;SDS011;48704;50.534;6.442;2023-12-20T01:39:44;9.93;;;2.50;;
62633;SDS011;48704;50.534;6.442;2023-12-20T01:42:10;7.82;;;2.20;;
62633;SDS011;48704;50.534;6.442;2023-12-20T01:44:35;7.97;;;2.97;;
62633;SDS011;48704;50.534;6.442;2023-12-20T01:47:00;7.15;;;2.53;;
62633;SDS011;48704;50.534;6.442;2023-12-20T01:49:26;6.40;;;2.83;;
62633;SDS011;48704;50.534;6.442;2023-12-20T01:51:52;13.27;;;2.42;;
62633;SDS011;48704;50.534;6.442;2023-12-20T01:54:18;5.90;;;2.50;;
62633;SDS011;48704;50.534;6.442;2023-12-20T01:56:44;10.95;;;2.78;;
62633;SDS011;48704;50.534;6.442;2023-12-20T01:59:10;3.03;;;1.83;;
62633;SDS011;48704;50.534;6.442;2023-12-20T02:01:36;7.05;;;2.92;;
62633;SDS011;48704;50.534;6.442;2023-12-20T02:04:01;11.43;;;2.92;;
62633;SDS011;48704;50.534;6.442;2023-12-20T02:06:29;9.20;;;2.60;;
62633;SDS011;48704;50.534;6.442;2023-12-20T02:08:58;5.55;;;2.47;;
62633;SDS011;48704;50.534;6.442;2023-12-20T02:11:24;10.23;;;3.08;;
62633;SDS011;48704;50.534;6.442;2023-12-20T02:13:50;9.55;;;2.85;;
62633;SDS011;48704;50.534;6.442;2023-12-20T02:16:15;7.75;;;2.90;;
62633;SDS011;48704;50.534;6.442;2023-12-20T02:18:42;6.45;;;2.40;;
62633;SDS011;48704;50.534;6.442;2023-12-20T02:21:09;6.32;;;1.98;;
62633;SDS011;48704;50.534;6.442;2023-12-20T02:23:34;11.18;;;2.67;;
62633;SDS011;48704;50.534;6.442;2023-12-20T02:26:00;6.10;;;2.28;;
62633;SDS011;48704;50.534;6.442;2023-12-20T02:28:25;3.92;;;1.90;;
62633;SDS011;48704;50.534;6.442;2023-12-20T02:30:51;12.73;;;2.58;;
62633;SDS011;48704;50.534;6.442;2023-12-20T02:33:16;4.20;;;2.42;;
62633;SDS011;48704;50.534;6.442;2023-12-20T02:35:42;9.65;;;2.88;;
62633;SDS011;48704;50.534;6.442;2023-12-20T02:38:07;8.35;;;2.88;;
62633;SDS011;48704;50.534;6.442;2023-12-20T02:40:32;6.25;;;2.35;;
62633;SDS011;48704;50.534;6.442;2023-12-20T02:42:58;4.55;;;1.52;;
62633;SDS011;48704;50.534;6.442;2023-12-20T02:45:23;12.48;;;2.67;;
62633;SDS011;48704;50.534;6.442;2023-12-20T02:47:48;5.53;;;1.98;;
62633;SDS011;48704;50.534;6.442;2023-12-20T02:50:14;6.35;;;2.47;;
62633;SDS011;48704;50.534;6.442;2023-12-20T02:52:39;7.45;;;2.03;;
62633;SDS011;48704;50.534;6.442;2023-12-20T02:55:04;5.18;;;2.05;;
62633;SDS011;48704;50.534;6.442;2023-12-20T02:57:30;11.98;;;3.15;;
62633;SDS011;48704;50.534;6.442;2023-12-20T02:59:55;5.18;;;2.22;;
62633;SDS011;48704;50.534;6.442;2023-12-20T03:02:20;7.07;;;2.35;;
62633;SDS011;48704;50.534;6.442;2023-12-20T03:04:45;10.88;;;2.90;;
62633;SDS011;48704;50.534;6.442;2023-12-20T03:07:11;12.68;;;2.67;;
62633;SDS011;48704;50.534;6.442;2023-12-20T03:09:37;5.15;;;1.90;;
62633;SDS011;48704;50.534;6.442;2023-12-20T03:12:02;4.70;;;2.03;;
62633;SDS011;48704;50.534;6.442;2023-12-20T03:14:28;12.95;;;2.20;;
62633;SDS011;48704;50.534;6.442;2023-12-20T03:16:53;2.28;;;1.27;;
62633;SDS011;48704;50.534;6.442;2023-12-20T03:19:18;9.02;;;2.88;;
62633;SDS011;48704;50.534;6.442;2023-12-20T03:21:44;5.60;;;2.22;;
62633;SDS011;48704;50.534;6.442;2023-12-20T03:24:09;5.65;;;2.13;;
62633;SDS011;48704;50.534;6.442;2023-12-20T03:26:35;8.48;;;1.92;;
62633;SDS011;48704;50.534;6.442;2023-12-20T03:29:00;3.05;;;1.50;;
62633;SDS011;48704;50.534;6.442;2023-12-20T03:31:25;6.15;;;1.77;;
62633;SDS011;48704;50.534;6.442;2023-12-20T03:33:51;9.20;;;2.28;;
62633;SDS011;48704;50.534;6.442;2023-12-20T03:36:18;11.40;;;2.10;;
62633;SDS011;48704;50.534;6.442;2023-12-20T03:38:43;8.32;;;2.25;;
62633;SDS011;48704;50.534;6.442;2023-12-20T03:41:09;9.93;;;2.92;;
62633;SDS011;48704;50.534;6.442;2023-12-20T03:43:34;8.88;;;2.08;;
62633;SDS011;48704;50.534;6.442;2023-12-20T03:45:59;10.27;;;2.15;;
62633;SDS011;48704;50.534;6.442;2023-12-20T03:48:25;5.63;;;2.63;;
62633;SDS011;48704;50.534;6.442;2023-12-20T03:50:50;9.05;;;1.63;;
62633;SDS011;48704;50.534;6.442;2023-12-20T03:53:15;14.43;;;3.22;;
62633;SDS011;48704;50.534;6.442;2023-12-20T03:55:41;6.82;;;2.55;;
62633;SDS011;48704;50.534;6.442;2023-12-20T03:58:06;5.28;;;2.90;;
62633;SDS011;48704;50.534;6.442;2023-12-20T04:00:31;11.52;;;2.95;;
62633;SDS011;48704;50.534;6.442;2023-12-20T04:02:56;6.47;;;2.85;;
62633;SDS011;48704;50.534;6.442;2023-12-20T04:05:22;11.00;;;3.53;;
62633;SDS011;48704;50.534;6.442;2023-12-20T04:07:47;3.95;;;1.83;;
62633;SDS011;48704;50.534;6.442;2023-12-20T04:10:12;7.78;;;2.40;;
62633;SDS011;48704;50.534;6.442;2023-12-20T04:12:38;6.15;;;2.42;;
62633;SDS011;48704;50.534;6.442;2023-12-20T04:15:04;13.18;;;2.42;;
62633;SDS011;48704;50.534;6.442;2023-12-20T04:17:35;12.93;;;3.30;;
62633;SDS011;48704;50.534;6.442;2023-12-20T04:20:01;4.05;;;2.28;;
62633;SDS011;48704;50.534;6.442;2023-12-20T04:22:26;10.73;;;2.22;;
62633;SDS011;48704;50.534;6.442;2023-12-20T04:24:51;6.18;;;1.90;;
62633;SDS011;48704;50.534;6.442;2023-12-20T04:27:17;12.60;;;2.53;;
62633;SDS011;48704;50.534;6.442;2023-12-20T04:29:42;8.13;;;2.78;;
62633;SDS011;48704;50.534;6.442;2023-12-20T04:32:07;6.75;;;1.98;;
62633;SDS011;48704;50.534;6.442;2023-12-20T04:34:33;9.90;;;3.15;;
62633;SDS011;48704;50.534;6.442;2023-12-20T04:36:58;5.55;;;2.05;;
62633;SDS011;48704;50.534;6.442;2023-12-20T04:39:23;8.35;;;2.28;;
62633;SDS011;48704;50.534;6.442;2023-12-20T04:41:49;6.22;;;2.03;;
62633;SDS011;48704;50.534;6.442;2023-12-20T04:44:15;6.55;;;2.50;;
62633;SDS011;48704;50.534;6.442;2023-12-20T04:46:40;5.55;;;2.72;;
62633;SDS011;48704;50.534;6.442;2023-12-20T04:49:05;7.72;;;2.22;;
62633;SDS011;48704;50.534;6.442;2023-12-20T04:51:34;10.05;;;2.30;;
62633;SDS011;48704;50.534;6.442;2023-12-20T04:53:59;10.52;;;2.33;;
62633;SDS011;48704;50.534;6.442;2023-12-20T04:56:24;8.55;;;2.55;;
62633;SDS011;48704;50.534;6.442;2023-12-20T04:58:50;7.80;;;2.03;;
62633;SDS011;48704;50.534;6.442;2023-12-20T05:01:15;11.18;;;3.00;;
62633;SDS011;48704;50.534;6.442;2023-12-20T05:03:41;16.95;;;3.08;;
62633;SDS011;48704;50.534;6.442;2023-12-20T05:06:07;15.40;;;3.08;;
62633;SDS011;48704;50.534;6.442;2023-12-20T05:08:32;6.80;;;1.80;;
62633;SDS011;48704;50.534;6.442;2023-12-20T05:10:57;4.60;;;2.25;;
62633;SDS011;48704;50.534;6.442;2023-12-20T05:13:23;2.72;;;1.75;;
62633;SDS011;48704;50.534;6.442;2023-12-20T05:15:48;8.63;;;1.70;;
62633;SDS011;48704;50.534;6.442;2023-12-20T05:18:14;11.80;;;2.95;;
62633;SDS011;48704;50.534;6.442;2023-12-20T05:20:39;12.57;;;2.70;;
62633;SDS011;48704;50.534;6.442;2023-12-20T05:23:05;12.88;;;3.47;;
62633;SDS011;48704;50.534;6.442;2023-12-20T05:25:30;13.80;;;2.83;;
62633;SDS011;48704;50.534;6.442;2023-12-20T05:27:56;6.50;;;1.60;;
62633;SDS011;48704;50.534;6.442;2023-12-20T05:30:21;8.77;;;2.17;;
62633;SDS011;48704;50.534;6.442;2023-12-20T05:32:47;6.60;;;1.90;;
62633;SDS011;48704;50.534;6.442;2023-12-20T05:35:12;8.65;;;2.03;;
62633;SDS011;48704;50.534;6.442;2023-12-20T05:37:37;10.60;;;3.05;;
62633;SDS011;48704;50.534;6.442;2023-12-20T05:40:03;11.35;;;2.20;;
62633;SDS011;48704;50.534;6.442;2023-12-20T05:42:29;13.27;;;3.55;;
62633;SDS011;48704;50.534;6.442;2023-12-20T05:44:54;12.30;;;2.85;;
62633;SDS011;48704;50.534;6.442;2023-12-20T05:47:20;8.30;;;2.75;;
62633;SDS011;48704;50.534;6.442;2023-12-20T05:49:45;16.65;;;2.20;;
62633;SDS011;48704;50.534;6.442;2023-12-20T05:52:10;8.10;;;1.80;;
62633;SDS011;48704;50.534;6.442;2023-12-20T05:54:35;7.50;;;2.63;;
62633;SDS011;48704;50.534;6.442;2023-12-20T05:57:01;7.22;;;1.70;;
62633;SDS011;48704;50.534;6.442;2023-12-20T05:59:26;7.38;;;3.05;;
62633;SDS011;48704;50.534;6.442;2023-12-20T06:01:51;6.95;;;3.28;;
62633;SDS011;48704;50.534;6.442;2023-12-20T06:04:17;7.28;;;2.65;;
62633;SDS011;48704;50.534;6.442;2023-12-20T06:06:42;12.15;;;2.50;;
62633;SDS011;48704;50.534;6.442;2023-12-20T06:09:08;13.57;;;2.78;;
62633;SDS011;48704;50.534;6.442;2023-12-20T06:11:33;12.10;;;3.45;;
62633;SDS011;48704;50.534;6.442;2023-12-20T06:13:59;7.63;;;2.22;;
62633;SDS011;48704;50.534;6.442;2023-12-20T06:16:24;7.65;;;2.90;;
62633;SDS011;48704;50.534;6.442;2023-12-20T06:18:49;9.05;;;4.13;;
62633;SDS011;48704;50.534;6.442;2023-12-20T06:21:15;12.77;;;3.72;;
62633;SDS011;48704;50.534;6.442;2023-12-20T06:23:40;16.25;;;3.70;;
62633;SDS011;48704;50.534;6.442;2023-12-20T06:26:06;10.90;;;3.38;;
62633;SDS011;48704;50.534;6.442;2023-12-20T06:28:31;12.60;;;3.75;;
62633;SDS011;48704;50.534;6.442;2023-12-20T06:30:56;10.68;;;3.60;;
62633;SDS011;48704;50.534;6.442;2023-12-20T06:33:22;7.97;;;2.75;;
62633;SDS011;48704;50.534;6.442;2023-12-20T06:35:48;12.85;;;3.28;;
62633;SDS011;48704;50.534;6.442;2023-12-20T06:38:14;6.60;;;2.10;;
62633;SDS011;48704;50.534;6.442;2023-12-20T06:40:39;11.43;;;2.53;;
62633;SDS011;48704;50.534;6.442;2023-12-20T06:43:04;9.13;;;2.65;;
62633;SDS011;48704;50.534;6.442;2023-12-20T06:45:31;15.15;;;2.50;;
62633;SDS011;48704;50.534;6.442;2023-12-20T06:47:57;7.28;;;2.60;;
62633;SDS011;48704;50.534;6.442;2023-12-20T06:50:23;11.77;;;3.55;;
62633;SDS011;48704;50.534;6.442;2023-12-20T06:52:48;7.80;;;2.42;;
62633;SDS011;48704;50.534;6.442;2023-12-20T06:55:14;14.73;;;3.72;;
62633;SDS011;48704;50.534;6.442;2023-12-20T06:57:39;11.85;;;2.20;;
62633;SDS011;48704;50.534;6.442;2023-12-20T07:00:05;5.68;;;2.00;;
62633;SDS011;48704;50.534;6.442;2023-12-20T07:02:30;10.60;;;2.33;;
62633;SDS011;48704;50.534;6.442;2023-12-20T07:04:56;11.65;;;2.35;;
62633;SDS011;48704;50.534;6.442;2023-12-20T07:07:22;16.60;;;3.08;;
62633;SDS011;48704;50.534;6.442;2023-12-20T07:09:49;7.05;;;3.00;;
62633;SDS011;48704;50.534;6.442;2023-12-20T07:12:15;6.82;;;2.88;;
62633;SDS011;48704;50.534;6.442;2023-12-20T07:14:40;5.15;;;1.85;;
62633;SDS011;48704;50.534;6.442;2023-12-20T07:17:06;15.20;;;2.47;;
62633;SDS011;48704;50.534;6.442;2023-12-20T07:19:36;6.18;;;2.13;;
62633;SDS011;48704;50.534;6.442;2023-12-20T07:22:02;7.55;;;2.28;;
62633;SDS011;48704;50.534;6.442;2023-12-20T07:24:27;11.80;;;3.35;;
62633;SDS011;48704;50.534;6.442;2023-12-20T07:26:52;9.75;;;2.80;;
62633;SDS011;48704;50.534;6.442;2023-12-20T07:29:18;9.48;;;2.63;;
62633;SDS011;48704;50.534;6.442;2023-12-20T07:31:43;12.52;;;3.13;;
62633;SDS011;48704;50.534;6.442;2023-12-20T07:34:08;11.23;;;3.17;;
62633;SDS011;48704;50.534;6.442;2023-12-20T07:36:33;9.35;;;2.03;;
62633;SDS011;48704;50.534;6.442;2023-12-20T07:38:59;7.97;;;2.80;;
62633;SDS011;48704;50.534;6.442;2023-12-20T07:41:24;7.15;;;2.33;;
62633;SDS011;48704;50.534;6.442;2023-12-20T07:43:49;4.75;;;2.63;;
62633;SDS011;48704;50.534;6.442;2023-12-20T07:46:15;9.85;;;3.65;;
62633;SDS011;48704;50.534;6.442;2023-12-20T07:48:40;3.80;;;1.67;;
62633;SDS011;48704;50.534;6.442;2023-12-20T07:51:06;4.93;;;2.30;;
62633;SDS011;48704;50.534;6.442;2023-12-20T07:53:33;12.18;;;3.15;;
62633;SDS011;48704;50.534;6.442;2023-12-20T07:55:59;7.32;;;2.30;;
62633;SDS011;48704;50.534;6.442;2023-12-20T07:58:24;5.03;;;2.35;;
62633;SDS011;48704;50.534;6.442;2023-12-20T08:00:49;6.47;;;2.65;;
62633;SDS011;48704;50.534;6.442;2023-12-20T08:03:15;8.20;;;2.85;;
62633;SDS011;48704;50.534;6.442;2023-12-20T08:05:40;4.45;;;1.92;;
62633;SDS011;48704;50.534;6.442;2023-12-20T08:08:06;6.95;;;2.90;;
62633;SDS011;48704;50.534;6.442;2023-12-20T08:10:31;8.90;;;2.97;;
62633;SDS011;48704;50.534;6.442;2023-12-20T08:12:57;12.65;;;2.90;;
62633;SDS011;48704;50.534;6.442;2023-12-20T08:15:22;5.00;;;2.47;;
62633;SDS011;48704;50.534;6.442;2023-12-20T08:17:48;7.70;;;2.95;;
62633;SDS011;48704;50.534;6.442;2023-12-20T08:20:15;16.30;;;4.38;;
62633;SDS011;48704;50.534;6.442;2023-12-20T08:22:41;13.13;;;3.60;;
62633;SDS011;48704;50.534;6.442;2023-12-20T08:25:06;10.57;;;3.47;;
62633;SDS011;48704;50.534;6.442;2023-12-20T08:27:32;14.20;;;4.10;;
62633;SDS011;48704;50.534;6.442;2023-12-20T08:29:57;7.85;;;4.32;;
62633;SDS011;48704;50.534;6.442;2023-12-20T08:32:25;12.70;;;3.55;;
62633;SDS011;48704;50.534;6.442;2023-12-20T08:34:51;9.82;;;2.40;;
62633;SDS011;48704;50.534;6.442;2023-12-20T08:37:16;10.90;;;3.13;;
62633;SDS011;48704;50.534;6.442;2023-12-20T08:39:41;8.05;;;2.92;;
62633;SDS011;48704;50.534;6.442;2023-12-20T08:42:08;7.38;;;1.83;;
62633;SDS011;48704;50.534;6.442;2023-12-20T08:44:33;5.65;;;2.42;;
62633;SDS011;48704;50.534;6.442;2023-12-20T08:46:59;10.35;;;3.28;;
62633;SDS011;48704;50.534;6.442;2023-12-20T08:49:24;15.50;;;3.38;;
62633;SDS011;48704;50.534;6.442;2023-12-20T08:51:50;5.63;;;2.00;;
62633;SDS011;48704;50.534;6.442;2023-12-20T08:54:15;9.13;;;2.53;;
62633;SDS011;48704;50.534;6.442;2023-12-20T08:56:42;11.98;;;3.15;;
62633;SDS011;48704;50.534;6.442;2023-12-20T08:59:08;4.97;;;1.63;;
62633;SDS011;48704;50.534;6.442;2023-12-20T09:01:34;7.97;;;2.28;;
62633;SDS011;48704;50.534;6.442;2023-12-20T09:04:00;9.30;;;2.65;;
62633;SDS011;48704;50.534;6.442;2023-12-20T09:06:25;7.70;;;2.58;;
62633;SDS011;48704;50.534;6.442;2023-12-20T09:08:51;12.77;;;2.15;;
62633;SDS011;48704;50.534;6.442;2023-12-20T09:11:16;3.40;;;1.65;;
62633;SDS011;48704;50.534;6.442;2023-12-20T09:13:42;4.43;;;1.80;;
62633;SDS011;48704;50.534;6.442;2023-12-20T09:16:09;3.88;;;2.10;;
62633;SDS011;48704;50.534;6.442;2023-12-20T09:18:34;5.80;;;1.80;;
62633;SDS011;48704;50.534;6.442;2023-12-20T09:21:00;10.75;;;2.90;;
62633;SDS011;48704;50.534;6.442;2023-12-20T09:23:25;7.50;;;3.38;;
62633;SDS011;48704;50.534;6.442;2023-12-20T09:25:50;6.60;;;1.95;;
62633;SDS011;48704;50.534;6.442;2023-12-20T09:28:16;13.00;;;2.15;;
62633;SDS011;48704;50.534;6.442;2023-12-20T09:30:41;5.10;;;1.70;;
62633;SDS011;48704;50.534;6.442;2023-12-20T09:33:07;14.90;;;2.28;;
62633;SDS011;48704;50.534;6.442;2023-12-20T09:35:32;15.27;;;3.08;;
62633;SDS011;48704;50.534;6.442;2023-12-20T09:37:58;3.65;;;1.98;;
62633;SDS011;48704;50.534;6.442;2023-12-20T09:40:23;12.93;;;3.72;;
62633;SDS011;48704;50.534;6.442;2023-12-20T09:42:55;8.75;;;3.15;;
62633;SDS011;48704;50.534;6.442;2023-12-20T09:45:34;4.93;;;2.17;;
62633;SDS011;48704;50.534;6.442;2023-12-20T09:47:59;6.47;;;1.65;;
62633;SDS011;48704;50.534;6.442;2023-12-20T09:50:25;10.93;;;3.08;;
62633;SDS011;48704;50.534;6.442;2023-12-20T09:52:51;7.03;;;2.53;;
62633;SDS011;48704;50.534;6.442;2023-12-20T09:55:18;4.93;;;2.25;;
62633;SDS011;48704;50.534;6.442;2023-12-20T09:57:44;7.38;;;2.33;;
62633;SDS011;48704;50.534;6.442;2023-12-20T10:00:11;12.65;;;3.03;;
62633;SDS011;48704;50.534;6.442;2023-12-20T10:02:38;6.13;;;2.75;;
62633;SDS011;48704;50.534;6.442;2023-12-20T10:05:06;6.50;;;2.05;;
62633;SDS011;48704;50.534;6.442;2023-12-20T10:07:34;9.55;;;2.42;;
62633;SDS011;48704;50.534;6.442;2023-12-20T10:10:00;9.38;;;3.50;;
62633;SDS011;48704;50.534;6.442;2023-12-20T10:12:27;9.05;;;2.88;;
62633;SDS011;48704;50.534;6.442;2023-12-20T10:14:52;8.40;;;3.13;;
62633;SDS011;48704;50.534;6.442;2023-12-20T10:17:18;4.80;;;2.55;;
62633;SDS011;48704;50.534;6.442;2023-12-20T10:19:43;8.05;;;2.58;;
62633;SDS011;48704;50.534;6.442;2023-12-20T10:22:08;11.73;;;2.65;;
62633;SDS011;48704;50.534;6.442;2023-12-20T10:24:35;10.63;;;3.72;;
62633;SDS011;48704;50.534;6.442;2023-12-20T10:27:04;6.68;;;3.20;;
62633;SDS011;48704;50.534;6.442;2023-12-20T10:29:33;5.13;;;2.63;;
62633;SDS011;48704;50.534;6.442;2023-12-20T10:32:05;10.23;;;4.00;;
62633;SDS011;48704;50.534;6.442;2023-12-20T10:34:52;8.90;;;4.22;;
62633;SDS011;48704;50.534;6.442;2023-12-20T10:37:19;12.00;;;4.60;;
62633;SDS011;48704;50.534;6.442;2023-12-20T10:39:46;16.63;;;4.70;;
62633;SDS011;48704;50.534;6.442;2023-12-20T10:42:21;9.20;;;3.55;;
62633;SDS011;48704;50.534;6.442;2023-12-20T10:44:52;14.98;;;3.65;;
62633;SDS011;48704;50.534;6.442;2023-12-20T10:47:19;18.08;;;5.20;;
62633;SDS011;48704;50.534;6.442;2023-12-20T10:49:45;10.77;;;2.97;;
62633;SDS011;48704;50.534;6.442;2023-12-20T10:52:12;10.43;;;4.07;;
62633;SDS011;48704;50.534;6.442;2023-12-20T10:54:40;14.15;;;4.53;;
62633;SDS011;48704;50.534;6.442;2023-12-20T10:57:06;16.65;;;3.75;;
62633;SDS011;48704;50.534;6.442;2023-12-20T10:59:33;8.10;;;3.80;;
62633;SDS011;48704;50.534;6.442;2023-12-20T11:02:01;13.05;;;3.75;;
62633;SDS011;48704;50.534;6.442;2023-12-20T11:04:34;8.95;;;2.83;;
62633;SDS011;48704;50.534;6.442;2023-12-20T11:09:38;12.00;;;4.18;;
62633;SDS011;48704;50.534;6.442;2023-12-20T11:15:13;10.43;;;2.70;;
62633;SDS011;48704;50.534;6.442;2023-12-20T11:17:40;14.18;;;4.60;;
62633;SDS011;48704;50.534;6.442;2023-12-20T11:20:06;8.23;;;3.38;;
62633;SDS011;48704;50.534;6.442;2023-12-20T11:22:33;8.57;;;3.58;;
62633;SDS011;48704;50.534;6.442;2023-12-20T11:25:05;12.38;;;3.38;;
62633;SDS011;48704;50.534;6.442;2023-12-20T11:27:36;13.38;;;3.70;;
62633;SDS011;48704;50.534;6.442;2023-12-20T11:30:05;4.40;;;2.08;;
62633;SDS011;48704;50.534;6.442;2023-12-20T11:32:32;13.50;;;4.15;;
62633;SDS011;48704;50.534;6.442;2023-12-20T11:35:00;5.07;;;2.60;;
62633;SDS011;48704;50.534;6.442;2023-12-20T11:37:41;8.50;;;3.70;;
62633;SDS011;48704;50.534;6.442;2023-12-20T11:40:13;9.30;;;3.72;;
62633;SDS011;48704;50.534;6.442;2023-12-20T11:42:43;10.55;;;3.47;;
62633;SDS011;48704;50.534;6.442;2023-12-20T11:45:16;11.27;;;3.35;;
62633;SDS011;48704;50.534;6.442;2023-12-20T11:47:48;7.78;;;2.85;;
62633;SDS011;48704;50.534;6.442;2023-12-20T11:50:18;7.75;;;2.38;;
62633;SDS011;48704;50.534;6.442;2023-12-20T11:52:44;8.13;;;3.25;;
62633;SDS011;48704;50.534;6.442;2023-12-20T11:55:09;8.60;;;3.30;;
62633;SDS011;48704;50.534;6.442;2023-12-20T11:57:35;9.07;;;2.63;;
62633;SDS011;48704;50.534;6.442;2023-12-20T12:00:01;11.05;;;3.08;;
62633;SDS011;48704;50.534;6.442;2023-12-20T12:02:27;9.18;;;3.13;;
62633;SDS011;48704;50.534;6.442;2023-12-20T12:04:53;9.77;;;2.92;;
62633;SDS011;48704;50.534;6.442;2023-12-20T12:07:18;5.47;;;2.30;;
62633;SDS011;48704;50.534;6.442;2023-12-20T12:09:44;4.90;;;2.60;;
62633;SDS011;48704;50.534;6.442;2023-12-20T12:12:10;11.38;;;2.92;;
62633;SDS011;48704;50.534;6.442;2023-12-20T12:14:37;11.77;;;3.22;;
62633;SDS011;48704;50.534;6.442;2023-12-20T12:17:03;4.82;;;2.95;;
62633;SDS011;48704;50.534;6.442;2023-12-20T12:19:29;10.40;;;3.17;;
62633;SDS011;48704;50.534;6.442;2023-12-20T12:24:51;6.68;;;2.97;;
62633;SDS011;48704;50.534;6.442;2023-12-20T12:27:17;16.65;;;2.72;;
62633;SDS011;48704;50.534;6.442;2023-12-20T12:29:59;13.73;;;3.17;;
62633;SDS011;48704;50.534;6.442;2023-12-20T12:32:29;10.50;;;3.28;;
62633;SDS011;48704;50.534;6.442;2023-12-20T12:34:54;17.08;;;3.50;;
62633;SDS011;48704;50.534;6.442;2023-12-20T12:37:20;12.30;;;3.58;;
62633;SDS011;48704;50.534;6.442;2023-12-20T12:39:48;8.85;;;3.08;;
62633;SDS011;48704;50.534;6.442;2023-12-20T12:42:14;12.30;;;2.95;;
62633;SDS011;48704;50.534;6.442;2023-12-20T12:44:40;10.30;;;3.88;;
62633;SDS011;48704;50.534;6.442;2023-12-20T12:47:05;10.18;;;2.78;;
62633;SDS011;48704;50.534;6.442;2023-12-20T12:49:31;10.70;;;2.65;;
62633;SDS011;48704;50.534;6.442;2023-12-20T12:51:57;14.18;;;3.75;;
62633;SDS011;48704;50.534;6.442;2023-12-20T12:54:23;9.27;;;3.72;;
62633;SDS011;48704;50.534;6.442;2023-12-20T12:56:49;8.48;;;2.42;;
62633;SDS011;48704;50.534;6.442;2023-12-20T12:59:15;5.60;;;2.67;;
62633;SDS011;48704;50.534;6.442;2023-12-20T13:01:41;9.45;;;2.90;;
62633;SDS011;48704;50.534;6.442;2023-12-20T13:04:06;6.63;;;2.20;;
62633;SDS011;48704;50.534;6.442;2023-12-20T13:06:35;3.30;;;1.67;;
62633;SDS011;48704;50.534;6.442;2023-12-20T13:09:04;5.80;;;1.90;;
62633;SDS011;48704;50.534;6.442;2023-12-20T13:11:30;5.00;;;1.42;;
62633;SDS011;48704;50.534;6.442;2023-12-20T13:13:56;3.20;;;1.80;;
62633;SDS011;48704;50.534;6.442;2023-12-20T13:16:22;5.47;;;1.80;;
62633;SDS011;48704;50.534;6.442;2023-12-20T13:18:49;5.72;;;1.65;;
62633;SDS011;48704;50.534;6.442;2023-12-20T13:21:15;4.03;;;1.63;;
62633;SDS011;48704;50.534;6.442;2023-12-20T13:23:41;7.22;;;1.60;;
62633;SDS011;48704;50.534;6.442;2023-12-20T13:26:06;3.80;;;1.30;;
62633;SDS011;48704;50.534;6.442;2023-12-20T13:28:32;1.90;;;1.10;;
62633;SDS011;48704;50.534;6.442;2023-12-20T13:30:58;1.95;;;0.77;;
62633;SDS011;48704;50.534;6.442;2023-12-20T13:33:23;2.90;;;0.93;;
62633;SDS011;48704;50.534;6.442;2023-12-20T13:35:48;2.63;;;1.45;;
62633;SDS011;48704;50.534;6.442;2023-12-20T13:38:14;4.95;;;1.67;;
62633;SDS011;48704;50.534;6.442;2023-12-20T13:40:39;6.38;;;2.20;;
62633;SDS011;48704;50.534;6.442;2023-12-20T13:43:05;3.28;;;1.13;;
62633;SDS011;48704;50.534;6.442;2023-12-20T13:45:31;3.55;;;0.77;;
62633;SDS011;48704;50.534;6.442;2023-12-20T13:47:56;2.25;;;1.00;;
62633;SDS011;48704;50.534;6.442;2023-12-20T13:50:21;5.10;;;1.20;;
62633;SDS011;48704;50.534;6.442;2023-12-20T13:52:47;2.85;;;1.48;;
62633;SDS011;48704;50.534;6.442;2023-12-20T13:55:13;5.25;;;1.40;;
62633;SDS011;48704;50.534;6.442;2023-12-20T13:57:38;4.63;;;1.67;;
62633;SDS011;48704;50.534;6.442;2023-12-20T14:00:05;2.53;;;1.13;;
62633;SDS011;48704;50.534;6.442;2023-12-20T14:02:30;3.67;;;1.33;;
62633;SDS011;48704;50.534;6.442;2023-12-20T14:04:56;3.70;;;1.38;;
62633;SDS011;48704;50.534;6.442;2023-12-20T14:07:21;1.85;;;0.77;;
62633;SDS011;48704;50.534;6.442;2023-12-20T14:09:46;5.38;;;1.45;;
62633;SDS011;48704;50.534;6.442;2023-12-20T14:12:12;11.88;;;1.58;;
62633;SDS011;48704;50.534;6.442;2023-12-20T14:14:38;8.80;;;1.90;;
62633;SDS011;48704;50.534;6.442;2023-12-20T14:17:03;2.25;;;1.00;;
62633;SDS011;48704;50.534;6.442;2023-12-20T14:19:29;2.17;;;1.10;;
62633;SDS011;48704;50.534;6.442;2023-12-20T14:21:54;11.65;;;2.33;;
62633;SDS011;48704;50.534;6.442;2023-12-20T14:24:19;4.10;;;1.33;;
62633;SDS011;48704;50.534;6.442;2023-12-20T14:26:45;4.75;;;1.95;;
62633;SDS011;48704;50.534;6.442;2023-12-20T14:29:10;8.30;;;2.00;;
62633;SDS011;48704;50.534;6.442;2023-12-20T14:31:35;2.70;;;1.45;;
62633;SDS011;48704;50.534;6.442;2023-12-20T14:34:03;2.95;;;1.60;;
62633;SDS011;48704;50.534;6.442;2023-12-20T14:36:29;4.85;;;2.38;;
62633;SDS011;48704;50.534;6.442;2023-12-20T14:38:57;5.10;;;2.13;;
62633;SDS011;48704;50.534;6.442;2023-12-20T14:41:23;7.90;;;2.40;;
62633;SDS011;48704;50.534;6.442;2023-12-20T14:43:49;7.28;;;2.05;;